sensor_id;sensor_type;location;lat;lon;timestamp;temperature;humidity
11497;DHT22;5805;51.542;7.230;2023-04-05T00:00:18;6.60;99.90
11497;DHT22;5805;51.542;7.230;2023-04-05T00:02:44;6.50;99.90
11497;DHT22;5805;51.542;7.230;2023-04-05T00:05:10;7.00;99.90
11497;DHT22;5805;51.542;7.230;2023-04-05T00:07:36;6.60;99.90
11497;DHT22;5805;51.542;7.230;2023-04-05T00:10:01;6.50;99.90
11497;DHT22;5805;51.542;7.230;2023-04-05T00:12:27;6.50;99.90
11497;DHT22;5805;51.542;7.230;2023-04-05T00:14:54;6.40;99.90
11497;DHT22;5805;51.542;7.230;2023-04-05T00:17:20;6.40;99.90
11497;DHT22;5805;51.542;7.230;2023-04-05T00:19:45;6.20;99.90
11497;DHT22;5805;51.542;7.230;2023-04-05T00:22:11;6.10;99.90
11497;DHT22;5805;51.542;7.230;2023-04-05T00:24:38;6.10;99.90
11497;DHT22;5805;51.542;7.230;2023-04-05T00:27:05;6.10;99.90
11497;DHT22;5805;51.542;7.230;2023-04-05T00:29:30;6.00;99.90
11497;DHT22;5805;51.542;7.230;2023-04-05T00:31:58;5.90;99.90
11497;DHT22;5805;51.542;7.230;2023-04-05T00:34:23;5.90;99.90
11497;DHT22;5805;51.542;7.230;2023-04-05T00:36:49;5.90;99.90
11497;DHT22;5805;51.542;7.230;2023-04-05T00:39:15;5.80;99.90
11497;DHT22;5805;51.542;7.230;2023-04-05T00:41:40;5.80;99.90
11497;DHT22;5805;51.542;7.230;2023-04-05T00:44:06;7.40;99.90
11497;DHT22;5805;51.542;7.230;2023-04-05T00:46:33;5.80;99.90
11497;DHT22;5805;51.542;7.230;2023-04-05T00:49:00;5.70;99.90
11497;DHT22;5805;51.542;7.230;2023-04-05T00:51:26;5.70;99.90
11497;DHT22;5805;51.542;7.230;2023-04-05T00:53:52;5.70;99.90
11497;DHT22;5805;51.542;7.230;2023-04-05T00:56:18;5.70;99.90
11497;DHT22;5805;51.542;7.230;2023-04-05T00:58:45;5.60;99.90
11497;DHT22;5805;51.542;7.230;2023-04-05T01:01:13;5.60;99.90
11497;DHT22;5805;51.542;7.230;2023-04-05T01:03:44;5.60;99.90
11497;DHT22;5805;51.542;7.230;2023-04-05T01:06:21;5.50;99.90
11497;DHT22;5805;51.542;7.230;2023-04-05T01:08:57;5.50;99.90
11497;DHT22;5805;51.542;7.230;2023-04-05T01:11:25;5.50;99.90
11497;DHT22;5805;51.542;7.230;2023-04-05T01:13:57;5.50;99.90
11497;DHT22;5805;51.542;7.230;2023-04-05T01:16:23;6.60;99.90
11497;DHT22;5805;51.542;7.230;2023-04-05T01:18:48;5.40;99.90
11497;DHT22;5805;51.542;7.230;2023-04-05T01:24:22;5.30;99.90
11497;DHT22;5805;51.542;7.230;2023-04-05T01:27:03;5.30;99.90
11497;DHT22;5805;51.542;7.230;2023-04-05T01:29:46;5.30;99.90
11497;DHT22;5805;51.542;7.230;2023-04-05T01:32:23;5.30;99.90
11497;DHT22;5805;51.542;7.230;2023-04-05T01:34:55;5.20;99.90
11497;DHT22;5805;51.542;7.230;2023-04-05T01:37:26;5.10;99.90
11497;DHT22;5805;51.542;7.230;2023-04-05T01:39:55;5.00;99.90
11497;DHT22;5805;51.542;7.230;2023-04-05T01:42:22;5.00;99.90
11497;DHT22;5805;51.542;7.230;2023-04-05T01:44:51;5.00;99.90
11497;DHT22;5805;51.542;7.230;2023-04-05T01:47:17;5.10;99.90
11497;DHT22;5805;51.542;7.230;2023-04-05T01:49:42;4.80;99.90
11497;DHT22;5805;51.542;7.230;2023-04-05T01:52:08;4.80;99.90
11497;DHT22;5805;51.542;7.230;2023-04-05T01:54:33;4.90;99.90
11497;DHT22;5805;51.542;7.230;2023-04-05T01:56:59;5.80;99.90
11497;DHT22;5805;51.542;7.230;2023-04-05T01:59:25;4.80;99.90
11497;DHT22;5805;51.542;7.230;2023-04-05T02:01:53;4.80;99.90
11497;DHT22;5805;51.542;7.230;2023-04-05T02:04:18;5.40;99.90
11497;DHT22;5805;51.542;7.230;2023-04-05T02:06:44;4.80;99.90
11497;DHT22;5805;51.542;7.230;2023-04-05T02:09:10;4.70;99.90
11497;DHT22;5805;51.542;7.230;2023-04-05T02:11:35;4.70;99.90
11497;DHT22;5805;51.542;7.230;2023-04-05T02:14:01;4.70;99.90
11497;DHT22;5805;51.542;7.230;2023-04-05T02:16:27;4.70;99.90
11497;DHT22;5805;51.542;7.230;2023-04-05T02:18:54;4.70;99.90
11497;DHT22;5805;51.542;7.230;2023-04-05T02:21:20;4.70;99.90
11497;DHT22;5805;51.542;7.230;2023-04-05T02:23:45;4.70;99.90
11497;DHT22;5805;51.542;7.230;2023-04-05T02:26:11;4.60;99.90
11497;DHT22;5805;51.542;7.230;2023-04-05T02:28:37;4.50;99.90
11497;DHT22;5805;51.542;7.230;2023-04-05T02:31:07;4.40;99.90
11497;DHT22;5805;51.542;7.230;2023-04-05T02:33:33;5.00;99.90
11497;DHT22;5805;51.542;7.230;2023-04-05T02:36:03;4.50;99.90
11497;DHT22;5805;51.542;7.230;2023-04-05T02:38:29;4.30;99.90
11497;DHT22;5805;51.542;7.230;2023-04-05T02:40:54;4.30;99.90
11497;DHT22;5805;51.542;7.230;2023-04-05T02:43:20;4.30;99.90
11497;DHT22;5805;51.542;7.230;2023-04-05T02:45:46;4.70;99.90
11497;DHT22;5805;51.542;7.230;2023-04-05T02:48:11;4.30;99.90
11497;DHT22;5805;51.542;7.230;2023-04-05T02:50:37;4.30;99.90
11497;DHT22;5805;51.542;7.230;2023-04-05T02:53:04;4.30;99.90
11497;DHT22;5805;51.542;7.230;2023-04-05T02:55:30;4.40;99.90
11497;DHT22;5805;51.542;7.230;2023-04-05T02:57:58;4.80;99.90
11497;DHT22;5805;51.542;7.230;2023-04-05T03:00:23;4.60;99.90
11497;DHT22;5805;51.542;7.230;2023-04-05T03:02:49;4.20;99.90
11497;DHT22;5805;51.542;7.230;2023-04-05T03:05:15;4.20;99.90
11497;DHT22;5805;51.542;7.230;2023-04-05T03:07:40;4.20;99.90
11497;DHT22;5805;51.542;7.230;2023-04-05T03:10:08;4.20;99.90
11497;DHT22;5805;51.542;7.230;2023-04-05T03:12:34;4.20;99.90
11497;DHT22;5805;51.542;7.230;2023-04-05T03:14:59;4.20;99.90
11497;DHT22;5805;51.542;7.230;2023-04-05T03:17:25;4.20;99.90
11497;DHT22;5805;51.542;7.230;2023-04-05T03:19:51;4.20;99.90
11497;DHT22;5805;51.542;7.230;2023-04-05T03:22:16;4.30;99.90
11497;DHT22;5805;51.542;7.230;2023-04-05T03:24:42;4.30;99.90
11497;DHT22;5805;51.542;7.230;2023-04-05T03:27:09;4.30;99.90
11497;DHT22;5805;51.542;7.230;2023-04-05T03:29:35;4.70;99.90
11497;DHT22;5805;51.542;7.230;2023-04-05T03:32:00;4.30;99.90
11497;DHT22;5805;51.542;7.230;2023-04-05T03:34:26;4.50;99.90
11497;DHT22;5805;51.542;7.230;2023-04-05T03:36:52;5.20;99.90
11497;DHT22;5805;51.542;7.230;2023-04-05T03:39:17;4.10;99.90
11497;DHT22;5805;51.542;7.230;2023-04-05T03:41:43;5.60;99.90
11497;DHT22;5805;51.542;7.230;2023-04-05T03:44:10;4.00;99.90
11497;DHT22;5805;51.542;7.230;2023-04-05T03:46:36;4.50;99.90
11497;DHT22;5805;51.542;7.230;2023-04-05T03:49:01;4.00;99.90
11497;DHT22;5805;51.542;7.230;2023-04-05T03:51:27;4.00;99.90
11497;DHT22;5805;51.542;7.230;2023-04-05T03:53:53;3.90;99.90
11497;DHT22;5805;51.542;7.230;2023-04-05T03:56:19;3.90;99.90
11497;DHT22;5805;51.542;7.230;2023-04-05T03:58:45;3.90;99.90
11497;DHT22;5805;51.542;7.230;2023-04-05T04:01:12;5.10;99.90
11497;DHT22;5805;51.542;7.230;2023-04-05T04:03:37;4.80;99.90
11497;DHT22;5805;51.542;7.230;2023-04-05T04:06:04;3.70;99.90
11497;DHT22;5805;51.542;7.230;2023-04-05T04:08:29;3.70;99.90
11497;DHT22;5805;51.542;7.230;2023-04-05T04:10:55;4.80;99.90
11497;DHT22;5805;51.542;7.230;2023-04-05T04:13:21;5.20;99.90
11497;DHT22;5805;51.542;7.230;2023-04-05T04:15:49;3.70;99.90
11497;DHT22;5805;51.542;7.230;2023-04-05T04:18:17;3.70;99.90
11497;DHT22;5805;51.542;7.230;2023-04-05T04:20:42;4.70;99.90
11497;DHT22;5805;51.542;7.230;2023-04-05T04:23:08;3.70;99.90
11497;DHT22;5805;51.542;7.230;2023-04-05T04:25:34;3.80;99.90
11497;DHT22;5805;51.542;7.230;2023-04-05T04:28:00;3.70;99.90
11497;DHT22;5805;51.542;7.230;2023-04-05T04:30:25;3.70;99.90
11497;DHT22;5805;51.542;7.230;2023-04-05T04:32:51;3.70;99.90
11497;DHT22;5805;51.542;7.230;2023-04-05T04:35:33;5.10;99.90
11497;DHT22;5805;51.542;7.230;2023-04-05T04:38:00;3.60;99.90
11497;DHT22;5805;51.542;7.230;2023-04-05T04:40:27;3.90;99.90
11497;DHT22;5805;51.542;7.230;2023-04-05T04:42:52;3.50;99.90
11497;DHT22;5805;51.542;7.230;2023-04-05T04:45:19;3.40;99.90
11497;DHT22;5805;51.542;7.230;2023-04-05T04:47:46;3.50;99.90
11497;DHT22;5805;51.542;7.230;2023-04-05T04:50:12;3.50;99.90
11497;DHT22;5805;51.542;7.230;2023-04-05T04:52:40;3.60;99.90
11497;DHT22;5805;51.542;7.230;2023-04-05T04:55:07;3.90;99.90
11497;DHT22;5805;51.542;7.230;2023-04-05T04:57:33;3.50;99.90
11497;DHT22;5805;51.542;7.230;2023-04-05T04:59:59;3.40;99.90
11497;DHT22;5805;51.542;7.230;2023-04-05T05:02:25;3.40;99.90
11497;DHT22;5805;51.542;7.230;2023-04-05T05:04:51;6.20;99.90
11497;DHT22;5805;51.542;7.230;2023-04-05T05:07:17;4.70;99.90
11497;DHT22;5805;51.542;7.230;2023-04-05T05:09:44;3.40;99.90
11497;DHT22;5805;51.542;7.230;2023-04-05T05:12:10;3.40;99.90
11497;DHT22;5805;51.542;7.230;2023-04-05T05:14:36;3.30;99.90
11497;DHT22;5805;51.542;7.230;2023-04-05T05:17:02;3.30;99.90
11497;DHT22;5805;51.542;7.230;2023-04-05T05:19:27;4.60;99.90
11497;DHT22;5805;51.542;7.230;2023-04-05T05:21:53;3.30;99.90
11497;DHT22;5805;51.542;7.230;2023-04-05T05:24:19;3.40;99.90
11497;DHT22;5805;51.542;7.230;2023-04-05T05:26:46;3.40;99.90
11497;DHT22;5805;51.542;7.230;2023-04-05T05:29:12;3.50;99.90
11497;DHT22;5805;51.542;7.230;2023-04-05T05:31:37;3.40;99.90
11497;DHT22;5805;51.542;7.230;2023-04-05T05:34:03;4.60;99.90
11497;DHT22;5805;51.542;7.230;2023-04-05T05:36:29;3.50;99.90
11497;DHT22;5805;51.542;7.230;2023-04-05T05:38:54;3.60;99.90
11497;DHT22;5805;51.542;7.230;2023-04-05T05:41:20;3.70;99.90
11497;DHT22;5805;51.542;7.230;2023-04-05T05:43:49;5.70;99.90
11497;DHT22;5805;51.542;7.230;2023-04-05T05:46:15;3.90;99.90
11497;DHT22;5805;51.542;7.230;2023-04-05T05:48:41;3.90;99.90
11497;DHT22;5805;51.542;7.230;2023-04-05T05:51:06;4.00;99.90
11497;DHT22;5805;51.542;7.230;2023-04-05T05:53:32;4.90;99.90
11497;DHT22;5805;51.542;7.230;2023-04-05T05:55:58;4.50;99.90
11497;DHT22;5805;51.542;7.230;2023-04-05T05:58:24;4.90;99.90
11497;DHT22;5805;51.542;7.230;2023-04-05T06:00:51;4.20;99.90
11497;DHT22;5805;51.542;7.230;2023-04-05T06:03:17;4.40;99.90
11497;DHT22;5805;51.542;7.230;2023-04-05T06:05:50;4.50;99.90
11497;DHT22;5805;51.542;7.230;2023-04-05T06:08:15;4.60;99.90
11497;DHT22;5805;51.542;7.230;2023-04-05T06:10:41;4.80;99.90
11497;DHT22;5805;51.542;7.230;2023-04-05T06:13:07;4.90;99.90
11497;DHT22;5805;51.542;7.230;2023-04-05T06:15:33;4.80;99.90
11497;DHT22;5805;51.542;7.230;2023-04-05T06:18:01;4.80;99.90
11497;DHT22;5805;51.542;7.230;2023-04-05T06:20:27;4.70;99.90
11497;DHT22;5805;51.542;7.230;2023-04-05T06:22:53;4.80;99.90
11497;DHT22;5805;51.542;7.230;2023-04-05T06:25:18;4.80;99.90
11497;DHT22;5805;51.542;7.230;2023-04-05T06:27:44;4.90;99.90
11497;DHT22;5805;51.542;7.230;2023-04-05T06:30:11;4.90;99.90
11497;DHT22;5805;51.542;7.230;2023-04-05T06:32:36;5.10;99.90
11497;DHT22;5805;51.542;7.230;2023-04-05T06:35:04;5.00;99.90
11497;DHT22;5805;51.542;7.230;2023-04-05T06:37:30;5.40;99.90
11497;DHT22;5805;51.542;7.230;2023-04-05T06:39:57;6.00;99.90
11497;DHT22;5805;51.542;7.230;2023-04-05T06:42:23;6.70;99.90
11497;DHT22;5805;51.542;7.230;2023-04-05T06:44:49;8.10;99.90
11497;DHT22;5805;51.542;7.230;2023-04-05T06:47:14;9.40;99.00
11497;DHT22;5805;51.542;7.230;2023-04-05T06:49:40;10.50;94.00
11497;DHT22;5805;51.542;7.230;2023-04-05T06:52:07;11.10;86.40
11497;DHT22;5805;51.542;7.230;2023-04-05T06:54:35;11.90;85.00
11497;DHT22;5805;51.542;7.230;2023-04-05T06:57:01;12.70;75.70
11497;DHT22;5805;51.542;7.230;2023-04-05T06:59:27;12.90;71.70
11497;DHT22;5805;51.542;7.230;2023-04-05T07:01:53;12.80;67.90
11497;DHT22;5805;51.542;7.230;2023-04-05T07:04:19;12.00;65.50
11497;DHT22;5805;51.542;7.230;2023-04-05T07:06:45;11.50;73.80
11497;DHT22;5805;51.542;7.230;2023-04-05T07:09:12;12.40;75.80
11497;DHT22;5805;51.542;7.230;2023-04-05T07:11:37;12.70;65.40
11497;DHT22;5805;51.542;7.230;2023-04-05T07:14:03;13.10;65.90
11497;DHT22;5805;51.542;7.230;2023-04-05T07:16:29;13.00;63.30
11497;DHT22;5805;51.542;7.230;2023-04-05T07:18:55;13.30;62.70
11497;DHT22;5805;51.542;7.230;2023-04-05T07:21:21;13.40;62.20
11497;DHT22;5805;51.542;7.230;2023-04-05T07:23:46;13.40;60.80
11497;DHT22;5805;51.542;7.230;2023-04-05T07:26:14;13.00;61.00
11497;DHT22;5805;51.542;7.230;2023-04-05T07:28:39;13.10;64.40
11497;DHT22;5805;51.542;7.230;2023-04-05T07:31:06;14.00;64.20
11497;DHT22;5805;51.542;7.230;2023-04-05T07:33:31;14.50;58.70
11497;DHT22;5805;51.542;7.230;2023-04-05T07:35:57;14.00;56.60
11497;DHT22;5805;51.542;7.230;2023-04-05T07:38:23;13.90;57.40
11497;DHT22;5805;51.542;7.230;2023-04-05T07:40:49;13.90;55.10
11497;DHT22;5805;51.542;7.230;2023-04-05T07:43:17;13.20;55.80
11497;DHT22;5805;51.542;7.230;2023-04-05T07:45:44;12.30;57.80
11497;DHT22;5805;51.542;7.230;2023-04-05T07:48:09;11.80;59.80
11497;DHT22;5805;51.542;7.230;2023-04-05T07:50:35;11.30;61.00
11497;DHT22;5805;51.542;7.230;2023-04-05T07:53:01;10.80;62.70
11497;DHT22;5805;51.542;7.230;2023-04-05T07:55:26;10.50;66.50
11497;DHT22;5805;51.542;7.230;2023-04-05T07:57:52;10.50;69.10
11497;DHT22;5805;51.542;7.230;2023-04-05T08:00:21;10.40;69.80
11497;DHT22;5805;51.542;7.230;2023-04-05T08:02:46;10.30;68.70
11497;DHT22;5805;51.542;7.230;2023-04-05T08:05:12;10.10;68.30
11497;DHT22;5805;51.542;7.230;2023-04-05T08:07:38;9.90;69.80
11497;DHT22;5805;51.542;7.230;2023-04-05T08:10:04;9.80;71.40
11497;DHT22;5805;51.542;7.230;2023-04-05T08:12:30;9.70;73.00
11497;DHT22;5805;51.542;7.230;2023-04-05T08:14:56;9.70;74.00
11497;DHT22;5805;51.542;7.230;2023-04-05T08:17:23;9.70;74.30
11497;DHT22;5805;51.542;7.230;2023-04-05T08:19:49;10.00;74.70
11497;DHT22;5805;51.542;7.230;2023-04-05T08:22:15;10.10;73.60
11497;DHT22;5805;51.542;7.230;2023-04-05T08:24:40;10.20;69.70
11497;DHT22;5805;51.542;7.230;2023-04-05T08:27:06;10.30;69.30
11497;DHT22;5805;51.542;7.230;2023-04-05T08:29:32;10.50;66.80
11497;DHT22;5805;51.542;7.230;2023-04-05T08:31:58;10.60;61.10
11497;DHT22;5805;51.542;7.230;2023-04-05T08:34:25;10.60;59.20
11497;DHT22;5805;51.542;7.230;2023-04-05T08:36:50;10.70;58.80
11497;DHT22;5805;51.542;7.230;2023-04-05T08:39:16;10.70;59.80
11497;DHT22;5805;51.542;7.230;2023-04-05T08:41:49;10.90;59.50
11497;DHT22;5805;51.542;7.230;2023-04-05T08:44:14;10.90;57.10
11497;DHT22;5805;51.542;7.230;2023-04-05T08:46:42;11.00;57.30
11497;DHT22;5805;51.542;7.230;2023-04-05T08:49:08;11.00;53.00
11497;DHT22;5805;51.542;7.230;2023-04-05T08:51:37;11.00;54.10
11497;DHT22;5805;51.542;7.230;2023-04-05T08:54:03;11.20;55.20
11497;DHT22;5805;51.542;7.230;2023-04-05T08:56:31;11.10;54.20
11497;DHT22;5805;51.542;7.230;2023-04-05T08:59:01;11.30;55.00
11497;DHT22;5805;51.542;7.230;2023-04-05T09:01:28;11.50;55.50
11497;DHT22;5805;51.542;7.230;2023-04-05T09:03:56;11.60;52.20
11497;DHT22;5805;51.542;7.230;2023-04-05T09:06:22;11.70;53.20
11497;DHT22;5805;51.542;7.230;2023-04-05T09:08:49;11.90;53.50
11497;DHT22;5805;51.542;7.230;2023-04-05T09:11:16;11.90;52.50
11497;DHT22;5805;51.542;7.230;2023-04-05T09:13:42;12.10;52.40
11497;DHT22;5805;51.542;7.230;2023-04-05T09:16:08;12.30;52.80
11497;DHT22;5805;51.542;7.230;2023-04-05T09:18:34;12.40;51.00
11497;DHT22;5805;51.542;7.230;2023-04-05T09:21:03;12.50;49.00
11497;DHT22;5805;51.542;7.230;2023-04-05T09:23:29;12.50;48.10
11497;DHT22;5805;51.542;7.230;2023-04-05T09:25:56;12.40;49.10
11497;DHT22;5805;51.542;7.230;2023-04-05T09:28:22;12.50;49.20
11497;DHT22;5805;51.542;7.230;2023-04-05T09:30:48;12.50;48.70
11497;DHT22;5805;51.542;7.230;2023-04-05T09:33:18;12.50;47.70
11497;DHT22;5805;51.542;7.230;2023-04-05T09:35:43;12.20;45.10
11497;DHT22;5805;51.542;7.230;2023-04-05T09:38:09;12.20;46.40
11497;DHT22;5805;51.542;7.230;2023-04-05T09:40:43;12.40;47.00
11497;DHT22;5805;51.542;7.230;2023-04-05T09:43:11;12.50;46.90
11497;DHT22;5805;51.542;7.230;2023-04-05T09:45:38;12.60;47.30
11497;DHT22;5805;51.542;7.230;2023-04-05T09:48:04;12.70;46.10
11497;DHT22;5805;51.542;7.230;2023-04-05T09:50:29;12.80;45.50
11497;DHT22;5805;51.542;7.230;2023-04-05T09:53:05;12.90;45.80
11497;DHT22;5805;51.542;7.230;2023-04-05T09:55:32;13.00;45.50
11497;DHT22;5805;51.542;7.230;2023-04-05T09:57:57;13.10;45.20
11497;DHT22;5805;51.542;7.230;2023-04-05T10:00:24;13.10;45.70
11497;DHT22;5805;51.542;7.230;2023-04-05T10:02:52;13.20;45.20
11497;DHT22;5805;51.542;7.230;2023-04-05T10:05:18;13.30;45.10
11497;DHT22;5805;51.542;7.230;2023-04-05T10:07:47;13.40;44.90
11497;DHT22;5805;51.542;7.230;2023-04-05T10:10:13;13.30;43.90
11497;DHT22;5805;51.542;7.230;2023-04-05T10:12:39;13.30;44.20
11497;DHT22;5805;51.542;7.230;2023-04-05T10:15:06;13.30;43.20
11497;DHT22;5805;51.542;7.230;2023-04-05T10:17:49;13.30;43.70
11497;DHT22;5805;51.542;7.230;2023-04-05T10:20:17;13.30;43.50
11497;DHT22;5805;51.542;7.230;2023-04-05T10:22:58;13.50;43.70
11497;DHT22;5805;51.542;7.230;2023-04-05T10:25:29;14.00;43.70
11497;DHT22;5805;51.542;7.230;2023-04-05T10:28:03;13.60;42.50
11497;DHT22;5805;51.542;7.230;2023-04-05T10:30:34;13.60;43.10
11497;DHT22;5805;51.542;7.230;2023-04-05T10:33:09;13.70;43.10
11497;DHT22;5805;51.542;7.230;2023-04-05T10:35:43;13.80;42.80
11497;DHT22;5805;51.542;7.230;2023-04-05T10:38:20;13.90;42.70
11497;DHT22;5805;51.542;7.230;2023-04-05T10:40:48;14.00;42.70
11497;DHT22;5805;51.542;7.230;2023-04-05T10:43:20;14.00;41.90
11497;DHT22;5805;51.542;7.230;2023-04-05T10:45:49;14.00;41.50
11497;DHT22;5805;51.542;7.230;2023-04-05T10:48:27;14.10;42.40
11497;DHT22;5805;51.542;7.230;2023-04-05T10:50:53;14.20;41.90
11497;DHT22;5805;51.542;7.230;2023-04-05T10:53:20;14.20;41.40
11497;DHT22;5805;51.542;7.230;2023-04-05T10:55:47;14.20;40.80
11497;DHT22;5805;51.542;7.230;2023-04-05T10:58:14;14.10;39.80
11497;DHT22;5805;51.542;7.230;2023-04-05T11:00:41;14.00;39.30
11497;DHT22;5805;51.542;7.230;2023-04-05T11:03:07;13.80;39.40
11497;DHT22;5805;51.542;7.230;2023-04-05T11:05:35;13.90;40.50
11497;DHT22;5805;51.542;7.230;2023-04-05T11:08:05;14.00;39.60
11497;DHT22;5805;51.542;7.230;2023-04-05T11:10:34;14.10;40.10
11497;DHT22;5805;51.542;7.230;2023-04-05T11:13:05;14.00;39.40
11497;DHT22;5805;51.542;7.230;2023-04-05T11:15:32;14.00;40.40
11497;DHT22;5805;51.542;7.230;2023-04-05T11:18:03;14.20;39.70
11497;DHT22;5805;51.542;7.230;2023-04-05T11:20:39;14.10;39.60
11497;DHT22;5805;51.542;7.230;2023-04-05T11:23:05;14.20;41.20
11497;DHT22;5805;51.542;7.230;2023-04-05T11:25:31;14.20;39.90
11497;DHT22;5805;51.542;7.230;2023-04-05T11:28:01;14.50;39.50
11497;DHT22;5805;51.542;7.230;2023-04-05T11:30:45;14.30;39.30
11497;DHT22;5805;51.542;7.230;2023-04-05T11:33:10;14.30;39.10
11497;DHT22;5805;51.542;7.230;2023-04-05T11:35:39;14.30;38.30
11497;DHT22;5805;51.542;7.230;2023-04-05T11:38:05;14.20;38.60
11497;DHT22;5805;51.542;7.230;2023-04-05T11:40:33;14.20;38.50
11497;DHT22;5805;51.542;7.230;2023-04-05T11:43:01;14.20;37.80
11497;DHT22;5805;51.542;7.230;2023-04-05T11:45:28;14.10;37.90
11497;DHT22;5805;51.542;7.230;2023-04-05T11:47:54;14.20;38.10
11497;DHT22;5805;51.542;7.230;2023-04-05T11:50:20;14.10;37.30
11497;DHT22;5805;51.542;7.230;2023-04-05T11:53:06;13.90;36.60
11497;DHT22;5805;51.542;7.230;2023-04-05T11:55:32;14.20;37.80
11497;DHT22;5805;51.542;7.230;2023-04-05T11:57:58;14.10;37.70
11497;DHT22;5805;51.542;7.230;2023-04-05T12:00:24;14.20;37.80
11497;DHT22;5805;51.542;7.230;2023-04-05T12:02:49;14.30;37.60
11497;DHT22;5805;51.542;7.230;2023-04-05T12:05:15;14.30;36.60
11497;DHT22;5805;51.542;7.230;2023-04-05T12:07:41;14.30;36.70
11497;DHT22;5805;51.542;7.230;2023-04-05T12:10:09;14.30;37.60
11497;DHT22;5805;51.542;7.230;2023-04-05T12:12:36;14.40;37.70
11497;DHT22;5805;51.542;7.230;2023-04-05T12:15:04;14.50;37.90
11497;DHT22;5805;51.542;7.230;2023-04-05T12:17:40;14.40;37.50
11497;DHT22;5805;51.542;7.230;2023-04-05T12:20:07;14.70;37.10
11497;DHT22;5805;51.542;7.230;2023-04-05T12:22:33;14.50;37.30
11497;DHT22;5805;51.542;7.230;2023-04-05T12:24:59;14.50;36.90
11497;DHT22;5805;51.542;7.230;2023-04-05T12:27:26;14.50;35.90
11497;DHT22;5805;51.542;7.230;2023-04-05T12:30:04;14.40;35.90
11497;DHT22;5805;51.542;7.230;2023-04-05T12:32:35;14.30;35.10
11497;DHT22;5805;51.542;7.230;2023-04-05T12:35:13;14.10;35.30
11497;DHT22;5805;51.542;7.230;2023-04-05T12:37:41;14.10;36.10
11497;DHT22;5805;51.542;7.230;2023-04-05T12:40:18;14.20;36.60
11497;DHT22;5805;51.542;7.230;2023-04-05T12:42:45;14.30;36.80
11497;DHT22;5805;51.542;7.230;2023-04-05T12:45:12;14.20;36.80
11497;DHT22;5805;51.542;7.230;2023-04-05T12:47:47;14.40;37.10
11497;DHT22;5805;51.542;7.230;2023-04-05T12:50:15;14.40;37.40
11497;DHT22;5805;51.542;7.230;2023-04-05T12:52:54;14.50;36.80
11497;DHT22;5805;51.542;7.230;2023-04-05T12:55:20;14.30;35.00
11497;DHT22;5805;51.542;7.230;2023-04-05T12:57:50;14.10;35.50
11497;DHT22;5805;51.542;7.230;2023-04-05T13:00:17;14.20;36.80
11497;DHT22;5805;51.542;7.230;2023-04-05T13:02:43;14.10;36.10
11497;DHT22;5805;51.542;7.230;2023-04-05T13:05:12;13.90;36.10
11497;DHT22;5805;51.542;7.230;2023-04-05T13:07:38;13.80;36.20
11497;DHT22;5805;51.542;7.230;2023-04-05T13:10:05;13.70;35.80
11497;DHT22;5805;51.542;7.230;2023-04-05T13:12:31;13.60;36.40
11497;DHT22;5805;51.542;7.230;2023-04-05T13:14:58;13.60;36.60
11497;DHT22;5805;51.542;7.230;2023-04-05T13:17:23;13.80;37.10
11497;DHT22;5805;51.542;7.230;2023-04-05T13:19:49;13.70;36.80
11497;DHT22;5805;51.542;7.230;2023-04-05T13:22:15;13.70;36.20
11497;DHT22;5805;51.542;7.230;2023-04-05T13:24:41;13.80;36.60
11497;DHT22;5805;51.542;7.230;2023-04-05T13:27:06;13.80;37.10
11497;DHT22;5805;51.542;7.230;2023-04-05T13:29:32;13.90;37.70
11497;DHT22;5805;51.542;7.230;2023-04-05T13:31:59;14.00;37.30
11497;DHT22;5805;51.542;7.230;2023-04-05T13:34:25;13.90;37.00
11497;DHT22;5805;51.542;7.230;2023-04-05T13:36:50;13.90;36.90
11497;DHT22;5805;51.542;7.230;2023-04-05T13:39:16;13.90;37.60
11497;DHT22;5805;51.542;7.230;2023-04-05T13:41:42;13.90;37.40
11497;DHT22;5805;51.542;7.230;2023-04-05T13:44:07;13.90;36.80
11497;DHT22;5805;51.542;7.230;2023-04-05T13:46:33;13.70;35.70
11497;DHT22;5805;51.542;7.230;2023-04-05T13:49:00;13.70;36.60
11497;DHT22;5805;51.542;7.230;2023-04-05T13:51:26;13.80;36.90
11497;DHT22;5805;51.542;7.230;2023-04-05T13:53:51;13.80;37.20
11497;DHT22;5805;51.542;7.230;2023-04-05T13:56:17;14.00;37.10
11497;DHT22;5805;51.542;7.230;2023-04-05T13:58:43;14.20;37.20
11497;DHT22;5805;51.542;7.230;2023-04-05T14:01:08;14.00;37.40
11497;DHT22;5805;51.542;7.230;2023-04-05T14:03:34;13.70;37.30
11497;DHT22;5805;51.542;7.230;2023-04-05T14:06:01;13.50;37.50
11497;DHT22;5805;51.542;7.230;2023-04-05T14:08:27;13.50;37.90
11497;DHT22;5805;51.542;7.230;2023-04-05T14:10:52;13.40;38.00
11497;DHT22;5805;51.542;7.230;2023-04-05T14:13:18;13.50;38.40
11497;DHT22;5805;51.542;7.230;2023-04-05T14:15:44;13.50;38.00
11497;DHT22;5805;51.542;7.230;2023-04-05T14:18:10;13.30;37.80
11497;DHT22;5805;51.542;7.230;2023-04-05T14:20:35;13.20;37.50
11497;DHT22;5805;51.542;7.230;2023-04-05T14:23:03;13.00;37.80
11497;DHT22;5805;51.542;7.230;2023-04-05T14:25:28;13.10;39.30
11497;DHT22;5805;51.542;7.230;2023-04-05T14:27:54;13.20;39.50
11497;DHT22;5805;51.542;7.230;2023-04-05T14:30:20;13.20;39.00
11497;DHT22;5805;51.542;7.230;2023-04-05T14:32:45;12.90;38.40
11497;DHT22;5805;51.542;7.230;2023-04-05T14:35:11;12.70;38.90
11497;DHT22;5805;51.542;7.230;2023-04-05T14:37:37;12.60;39.20
11497;DHT22;5805;51.542;7.230;2023-04-05T14:40:05;12.70;39.60
11497;DHT22;5805;51.542;7.230;2023-04-05T14:42:31;12.80;40.00
11497;DHT22;5805;51.542;7.230;2023-04-05T14:44:56;12.70;39.80
11497;DHT22;5805;51.542;7.230;2023-04-05T14:47:22;12.60;40.30
11497;DHT22;5805;51.542;7.230;2023-04-05T14:49:48;12.70;40.60
11497;DHT22;5805;51.542;7.230;2023-04-05T14:52:14;12.70;41.00
11497;DHT22;5805;51.542;7.230;2023-04-05T14:54:39;12.70;40.70
11497;DHT22;5805;51.542;7.230;2023-04-05T14:57:06;12.70;40.70
11497;DHT22;5805;51.542;7.230;2023-04-05T14:59:32;12.60;39.80
11497;DHT22;5805;51.542;7.230;2023-04-05T15:01:58;12.60;39.80
11497;DHT22;5805;51.542;7.230;2023-04-05T15:04:24;12.60;39.90
11497;DHT22;5805;51.542;7.230;2023-04-05T15:06:49;12.60;40.00
11497;DHT22;5805;51.542;7.230;2023-04-05T15:09:15;12.60;40.10
11497;DHT22;5805;51.542;7.230;2023-04-05T15:11:41;12.60;40.00
11497;DHT22;5805;51.542;7.230;2023-04-05T15:14:08;12.70;40.20
11497;DHT22;5805;51.542;7.230;2023-04-05T15:16:34;12.70;40.20
11497;DHT22;5805;51.542;7.230;2023-04-05T15:19:00;12.70;39.70
11497;DHT22;5805;51.542;7.230;2023-04-05T15:21:26;12.80;39.60
11497;DHT22;5805;51.542;7.230;2023-04-05T15:23:51;12.70;39.00
11497;DHT22;5805;51.542;7.230;2023-04-05T15:26:17;12.70;39.60
11497;DHT22;5805;51.542;7.230;2023-04-05T15:28:43;12.80;39.90
11497;DHT22;5805;51.542;7.230;2023-04-05T15:31:10;12.80;39.90
11497;DHT22;5805;51.542;7.230;2023-04-05T15:33:36;12.90;40.60
11497;DHT22;5805;51.542;7.230;2023-04-05T15:36:02;12.90;40.40
11497;DHT22;5805;51.542;7.230;2023-04-05T15:38:27;12.70;39.70
11497;DHT22;5805;51.542;7.230;2023-04-05T15:40:53;12.50;39.80
11497;DHT22;5805;51.542;7.230;2023-04-05T15:43:19;12.40;40.40
11497;DHT22;5805;51.542;7.230;2023-04-05T15:45:45;12.50;40.70
11497;DHT22;5805;51.542;7.230;2023-04-05T15:48:12;12.50;40.60
11497;DHT22;5805;51.542;7.230;2023-04-05T15:50:38;12.50;40.80
11497;DHT22;5805;51.542;7.230;2023-04-05T15:53:03;12.50;40.60